sensor_id;sensor_type;location;lat;lon;timestamp;pressure;altitude;pressure_sealevel;temperature;humidity
63019;BME280;49105;46.046;10.760;2023-09-19T00:00:15;95453.56;;;18.22;87.32
63019;BME280;49105;46.046;10.760;2023-09-19T00:02:46;95452.28;;;18.28;87.37
63019;BME280;49105;46.046;10.760;2023-09-19T00:05:16;95454.75;;;18.33;87.03
63019;BME280;49105;46.046;10.760;2023-09-19T00:07:42;95462.59;;;18.39;87.23
63019;BME280;49105;46.046;10.760;2023-09-19T00:10:08;95459.72;;;18.44;87.39
63019;BME280;49105;46.046;10.760;2023-09-19T00:12:35;95450.25;;;18.46;86.73
63019;BME280;49105;46.046;10.760;2023-09-19T00:15:00;95444.31;;;18.41;86.52
63019;BME280;49105;46.046;10.760;2023-09-19T00:17:27;95444.38;;;18.32;86.35
63019;BME280;49105;46.046;10.760;2023-09-19T00:19:55;95446.13;;;18.28;86.35
63019;BME280;49105;46.046;10.760;2023-09-19T00:22:21;95459.84;;;18.26;86.60
63019;BME280;49105;46.046;10.760;2023-09-19T00:24:48;95452.28;;;18.28;86.73
63019;BME280;49105;46.046;10.760;2023-09-19T00:27:14;95458.53;;;18.32;86.91
63019;BME280;49105;46.046;10.760;2023-09-19T00:29:41;95452.53;;;18.35;86.82
63019;BME280;49105;46.046;10.760;2023-09-19T00:32:07;95456.13;;;18.40;86.44
63019;BME280;49105;46.046;10.760;2023-09-19T00:34:32;95455.81;;;18.41;86.56
63019;BME280;49105;46.046;10.760;2023-09-19T00:36:59;95453.56;;;18.43;86.59
63019;BME280;49105;46.046;10.760;2023-09-19T00:39:26;95452.66;;;18.39;86.16
63019;BME280;49105;46.046;10.760;2023-09-19T00:41:57;95446.91;;;18.28;85.93
63019;BME280;49105;46.046;10.760;2023-09-19T00:44:22;95433.56;;;18.20;86.30
63019;BME280;49105;46.046;10.760;2023-09-19T00:46:49;95431.88;;;18.15;86.38
63019;BME280;49105;46.046;10.760;2023-09-19T00:49:16;95432.53;;;18.12;86.52
63019;BME280;49105;46.046;10.760;2023-09-19T00:51:42;95441.69;;;18.11;86.64
63019;BME280;49105;46.046;10.760;2023-09-19T00:54:12;95448.94;;;18.10;86.77
63019;BME280;49105;46.046;10.760;2023-09-19T00:56:43;95447.47;;;18.13;86.68
63019;BME280;49105;46.046;10.760;2023-09-19T00:59:10;95457.53;;;18.16;86.63
63019;BME280;49105;46.046;10.760;2023-09-19T01:01:37;95447.28;;;18.18;86.76
63019;BME280;49105;46.046;10.760;2023-09-19T01:04:05;95447.94;;;18.15;86.50
63019;BME280;49105;46.046;10.760;2023-09-19T01:06:31;95437.69;;;18.17;86.72
63019;BME280;49105;46.046;10.760;2023-09-19T01:08:58;95437.38;;;18.19;86.26
63019;BME280;49105;46.046;10.760;2023-09-19T01:11:38;95438.94;;;18.20;86.11
63019;BME280;49105;46.046;10.760;2023-09-19T01:14:42;95441.00;;;18.14;86.15
63019;BME280;49105;46.046;10.760;2023-09-19T01:17:27;95439.13;;;18.15;86.06
63019;BME280;49105;46.046;10.760;2023-09-19T01:20:11;95445.13;;;18.12;86.45
63019;BME280;49105;46.046;10.760;2023-09-19T01:31:04;95449.38;;;18.13;86.15
63019;BME280;49105;46.046;10.760;2023-09-19T01:33:56;95445.72;;;18.17;86.20
63019;BME280;49105;46.046;10.760;2023-09-19T01:36:23;95439.06;;;18.23;86.26
63019;BME280;49105;46.046;10.760;2023-09-19T01:38:50;95430.84;;;18.28;85.98
63019;BME280;49105;46.046;10.760;2023-09-19T01:41:21;95434.28;;;18.29;85.65
63019;BME280;49105;46.046;10.760;2023-09-19T01:43:50;95443.91;;;18.30;85.70
63019;BME280;49105;46.046;10.760;2023-09-19T01:46:21;95451.94;;;18.30;85.75
63019;BME280;49105;46.046;10.760;2023-09-19T01:52:04;95448.25;;;18.14;86.39
63019;BME280;49105;46.046;10.760;2023-09-19T01:54:36;95455.78;;;18.20;86.31
63019;BME280;49105;46.046;10.760;2023-09-19T01:59:48;95448.19;;;18.22;85.74
63019;BME280;49105;46.046;10.760;2023-09-19T02:02:14;95442.84;;;18.22;85.64
63019;BME280;49105;46.046;10.760;2023-09-19T02:04:43;95446.00;;;18.24;85.71
63019;BME280;49105;46.046;10.760;2023-09-19T02:07:09;95446.00;;;18.24;85.69
63019;BME280;49105;46.046;10.760;2023-09-19T02:09:35;95436.69;;;18.22;86.01
63019;BME280;49105;46.046;10.760;2023-09-19T02:12:04;95446.19;;;18.19;85.78
63019;BME280;49105;46.046;10.760;2023-09-19T02:14:30;95446.97;;;18.20;85.99
63019;BME280;49105;46.046;10.760;2023-09-19T02:16:57;95452.78;;;18.22;85.96
63019;BME280;49105;46.046;10.760;2023-09-19T02:19:23;95451.84;;;18.18;86.06
63019;BME280;49105;46.046;10.760;2023-09-19T02:21:50;95454.16;;;18.07;86.18
63019;BME280;49105;46.046;10.760;2023-09-19T02:24:16;95447.72;;;17.99;86.21
63019;BME280;49105;46.046;10.760;2023-09-19T02:26:42;95455.75;;;17.99;86.59
63019;BME280;49105;46.046;10.760;2023-09-19T02:29:08;95450.53;;;18.03;86.49
63019;BME280;49105;46.046;10.760;2023-09-19T02:31:38;95453.03;;;18.08;86.55
63019;BME280;49105;46.046;10.760;2023-09-19T02:34:04;95446.56;;;18.09;86.44
63019;BME280;49105;46.046;10.760;2023-09-19T02:36:32;95446.69;;;18.13;86.32
63019;BME280;49105;46.046;10.760;2023-09-19T02:38:59;95448.41;;;18.17;86.14
63019;BME280;49105;46.046;10.760;2023-09-19T02:41:25;95451.53;;;18.19;86.12
63019;BME280;49105;46.046;10.760;2023-09-19T02:43:52;95452.31;;;18.20;86.06
63019;BME280;49105;46.046;10.760;2023-09-19T02:46:17;95464.81;;;18.16;86.04
63019;BME280;49105;46.046;10.760;2023-09-19T02:48:45;95465.44;;;18.13;86.38
63019;BME280;49105;46.046;10.760;2023-09-19T02:51:10;95460.88;;;18.13;86.32
63019;BME280;49105;46.046;10.760;2023-09-19T02:53:37;95464.47;;;18.17;86.13
63019;BME280;49105;46.046;10.760;2023-09-19T02:56:03;95463.34;;;18.18;86.21
63019;BME280;49105;46.046;10.760;2023-09-19T02:58:29;95468.72;;;18.18;86.30
63019;BME280;49105;46.046;10.760;2023-09-19T03:00:55;95474.25;;;18.13;86.08
63019;BME280;49105;46.046;10.760;2023-09-19T03:03:21;95467.78;;;18.14;86.21
63019;BME280;49105;46.046;10.760;2023-09-19T03:05:48;95470.81;;;18.13;86.10
63019;BME280;49105;46.046;10.760;2023-09-19T03:08:14;95467.97;;;18.09;86.08
63019;BME280;49105;46.046;10.760;2023-09-19T03:10:40;95469.53;;;18.10;85.78
63019;BME280;49105;46.046;10.760;2023-09-19T03:13:06;95471.00;;;18.07;85.87
63019;BME280;49105;46.046;10.760;2023-09-19T03:15:35;95467.06;;;18.05;85.74
63019;BME280;49105;46.046;10.760;2023-09-19T03:18:04;95467.53;;;18.07;85.84
63019;BME280;49105;46.046;10.760;2023-09-19T03:20:30;95465.06;;;17.93;85.39
63019;BME280;49105;46.046;10.760;2023-09-19T03:22:56;95464.47;;;17.88;85.91
63019;BME280;49105;46.046;10.760;2023-09-19T03:25:22;95458.66;;;17.85;85.45
63019;BME280;49105;46.046;10.760;2023-09-19T03:27:48;95456.78;;;17.86;85.71
63019;BME280;49105;46.046;10.760;2023-09-19T03:30:14;95454.88;;;17.87;85.46
63019;BME280;49105;46.046;10.760;2023-09-19T03:32:47;95467.59;;;17.90;85.69
63019;BME280;49105;46.046;10.760;2023-09-19T03:35:16;95470.63;;;17.88;85.50
63019;BME280;49105;46.046;10.760;2023-09-19T03:37:42;95459.13;;;17.88;85.56
63019;BME280;49105;46.046;10.760;2023-09-19T03:40:10;95461.81;;;17.88;84.99
63019;BME280;49105;46.046;10.760;2023-09-19T03:42:39;95458.19;;;17.83;84.99
63019;BME280;49105;46.046;10.760;2023-09-19T03:45:07;95451.91;;;17.79;85.10
63019;BME280;49105;46.046;10.760;2023-09-19T03:47:36;95455.72;;;17.78;85.33
63019;BME280;49105;46.046;10.760;2023-09-19T03:50:02;95456.34;;;17.75;85.12
63019;BME280;49105;46.046;10.760;2023-09-19T03:52:28;95450.22;;;17.66;84.89
63019;BME280;49105;46.046;10.760;2023-09-19T03:54:54;95450.09;;;17.63;85.21
63019;BME280;49105;46.046;10.760;2023-09-19T03:57:22;95444.13;;;17.57;84.72
63019;BME280;49105;46.046;10.760;2023-09-19T03:59:47;95450.75;;;17.51;84.74
63019;BME280;49105;46.046;10.760;2023-09-19T04:02:13;95452.97;;;17.49;84.95
63019;BME280;49105;46.046;10.760;2023-09-19T04:04:48;95448.56;;;17.44;85.37
63019;BME280;49105;46.046;10.760;2023-09-19T04:07:14;95451.91;;;17.41;85.21
63019;BME280;49105;46.046;10.760;2023-09-19T04:09:40;95455.34;;;17.42;85.26
63019;BME280;49105;46.046;10.760;2023-09-19T04:12:07;95451.75;;;17.38;85.25
63019;BME280;49105;46.046;10.760;2023-09-19T04:14:34;95450.66;;;17.30;84.90
63019;BME280;49105;46.046;10.760;2023-09-19T04:17:00;95448.97;;;17.25;85.41
63019;BME280;49105;46.046;10.760;2023-09-19T04:19:27;95452.75;;;17.24;85.73
63019;BME280;49105;46.046;10.760;2023-09-19T04:21:53;95451.16;;;17.23;85.55
63019;BME280;49105;46.046;10.760;2023-09-19T04:24:19;95453.69;;;17.28;85.65
63019;BME280;49105;46.046;10.760;2023-09-19T04:26:45;95447.66;;;17.31;85.52
63019;BME280;49105;46.046;10.760;2023-09-19T04:29:11;95453.00;;;17.31;85.42
63019;BME280;49105;46.046;10.760;2023-09-19T04:31:39;95450.66;;;17.30;85.59
63019;BME280;49105;46.046;10.760;2023-09-19T04:34:06;95455.53;;;17.28;85.51
63019;BME280;49105;46.046;10.760;2023-09-19T04:36:31;95464.38;;;17.28;86.00
63019;BME280;49105;46.046;10.760;2023-09-19T04:38:57;95464.19;;;17.33;86.12
63019;BME280;49105;46.046;10.760;2023-09-19T04:41:24;95461.97;;;17.35;85.73
63019;BME280;49105;46.046;10.760;2023-09-19T04:43:49;95465.75;;;17.34;85.76
63019;BME280;49105;46.046;10.760;2023-09-19T04:46:16;95471.28;;;17.29;85.69
63019;BME280;49105;46.046;10.760;2023-09-19T04:48:43;95468.31;;;17.22;85.58
63019;BME280;49105;46.046;10.760;2023-09-19T04:51:09;95472.72;;;17.18;86.06
63019;BME280;49105;46.046;10.760;2023-09-19T04:53:36;95474.00;;;17.12;85.86
63019;BME280;49105;46.046;10.760;2023-09-19T04:56:02;95485.00;;;17.10;86.16
63019;BME280;49105;46.046;10.760;2023-09-19T04:58:29;95491.78;;;17.08;86.30
63019;BME280;49105;46.046;10.760;2023-09-19T05:00:55;95492.72;;;17.12;86.00
63019;BME280;49105;46.046;10.760;2023-09-19T05:03:21;95494.47;;;17.08;86.08
63019;BME280;49105;46.046;10.760;2023-09-19T05:05:47;95499.81;;;17.08;86.16
63019;BME280;49105;46.046;10.760;2023-09-19T05:08:14;95499.47;;;17.09;86.33
63019;BME280;49105;46.046;10.760;2023-09-19T05:10:40;95500.75;;;17.12;85.95
63019;BME280;49105;46.046;10.760;2023-09-19T05:13:06;95505.00;;;17.13;85.87
63019;BME280;49105;46.046;10.760;2023-09-19T05:15:35;95507.81;;;17.17;85.96
63019;BME280;49105;46.046;10.760;2023-09-19T05:18:01;95507.50;;;17.18;85.64
63019;BME280;49105;46.046;10.760;2023-09-19T05:20:28;95508.59;;;17.17;85.66
63019;BME280;49105;46.046;10.760;2023-09-19T05:23:05;95520.72;;;17.15;85.51
63019;BME280;49105;46.046;10.760;2023-09-19T05:25:34;95515.69;;;17.13;85.98
63019;BME280;49105;46.046;10.760;2023-09-19T05:28:05;95520.56;;;17.02;85.51
63019;BME280;49105;46.046;10.760;2023-09-19T05:30:38;95526.69;;;16.94;85.88
63019;BME280;49105;46.046;10.760;2023-09-19T05:33:05;95527.19;;;16.96;86.03
63019;BME280;49105;46.046;10.760;2023-09-19T05:35:31;95529.38;;;17.03;85.81
63019;BME280;49105;46.046;10.760;2023-09-19T05:37:57;95521.19;;;17.08;85.91
63019;BME280;49105;46.046;10.760;2023-09-19T05:40:24;95530.94;;;17.13;85.94
63019;BME280;49105;46.046;10.760;2023-09-19T05:42:50;95540.88;;;17.12;85.52
63019;BME280;49105;46.046;10.760;2023-09-19T05:45:16;95539.13;;;16.99;85.33
63019;BME280;49105;46.046;10.760;2023-09-19T05:47:48;95542.56;;;16.91;85.97
63019;BME280;49105;46.046;10.760;2023-09-19T05:50:14;95546.84;;;16.92;85.98
63019;BME280;49105;46.046;10.760;2023-09-19T05:52:41;95552.34;;;17.04;86.28
63019;BME280;49105;46.046;10.760;2023-09-19T05:55:08;95551.38;;;17.17;85.83
63019;BME280;49105;46.046;10.760;2023-09-19T05:57:37;95565.69;;;17.30;86.23
63019;BME280;49105;46.046;10.760;2023-09-19T06:00:26;95557.19;;;17.45;85.45
63019;BME280;49105;46.046;10.760;2023-09-19T06:02:56;95563.75;;;17.48;84.90
63019;BME280;49105;46.046;10.760;2023-09-19T06:05:23;95563.75;;;17.48;85.26
63019;BME280;49105;46.046;10.760;2023-09-19T06:07:50;95552.28;;;17.47;84.60
63019;BME280;49105;46.046;10.760;2023-09-19T06:10:17;95558.91;;;17.50;84.59
63019;BME280;49105;46.046;10.760;2023-09-19T06:12:43;95556.69;;;17.52;84.92
63019;BME280;49105;46.046;10.760;2023-09-19T06:15:10;95557.31;;;17.57;85.25
63019;BME280;49105;46.046;10.760;2023-09-19T06:17:47;95564.84;;;17.64;84.82
63019;BME280;49105;46.046;10.760;2023-09-19T06:20:13;95568.94;;;17.70;84.85
63019;BME280;49105;46.046;10.760;2023-09-19T06:22:41;95563.72;;;17.82;84.98
63019;BME280;49105;46.046;10.760;2023-09-19T06:25:08;95560.88;;;17.88;84.39
63019;BME280;49105;46.046;10.760;2023-09-19T06:27:37;95565.44;;;17.87;84.07
63019;BME280;49105;46.046;10.760;2023-09-19T06:30:03;95562.56;;;17.92;83.82
63019;BME280;49105;46.046;10.760;2023-09-19T06:32:28;95566.00;;;18.01;84.33
63019;BME280;49105;46.046;10.760;2023-09-19T06:34:55;95566.88;;;18.14;83.78
63019;BME280;49105;46.046;10.760;2023-09-19T06:37:26;95566.03;;;18.31;83.44
63019;BME280;49105;46.046;10.760;2023-09-19T06:39:53;95566.31;;;18.38;83.29
63019;BME280;49105;46.046;10.760;2023-09-19T06:42:19;95563.13;;;18.45;82.92
63019;BME280;49105;46.046;10.760;2023-09-19T06:44:44;95558.75;;;18.40;82.81
63019;BME280;49105;46.046;10.760;2023-09-19T06:47:11;95563.63;;;18.38;82.59
63019;BME280;49105;46.046;10.760;2023-09-19T06:49:36;95571.06;;;18.32;82.53
63019;BME280;49105;46.046;10.760;2023-09-19T06:52:03;95575.50;;;18.28;82.79
63019;BME280;49105;46.046;10.760;2023-09-19T06:54:29;95568.09;;;18.25;82.87
63019;BME280;49105;46.046;10.760;2023-09-19T06:56:57;95572.34;;;18.26;82.89
63019;BME280;49105;46.046;10.760;2023-09-19T06:59:24;95572.22;;;18.23;82.82
63019;BME280;49105;46.046;10.760;2023-09-19T07:01:50;95572.25;;;18.14;82.53
63019;BME280;49105;46.046;10.760;2023-09-19T07:04:16;95574.66;;;18.07;82.82
63019;BME280;49105;46.046;10.760;2023-09-19T07:06:44;95567.91;;;18.01;82.84
63019;BME280;49105;46.046;10.760;2023-09-19T07:09:11;95562.72;;;17.96;82.88
63019;BME280;49105;46.046;10.760;2023-09-19T07:11:38;95567.16;;;17.92;82.82
63019;BME280;49105;46.046;10.760;2023-09-19T07:14:05;95566.03;;;17.93;83.17
63019;BME280;49105;46.046;10.760;2023-09-19T07:16:31;95564.13;;;17.93;82.86
63019;BME280;49105;46.046;10.760;2023-09-19T07:18:56;95571.84;;;18.03;83.21
63019;BME280;49105;46.046;10.760;2023-09-19T07:21:23;95566.88;;;18.14;82.78
63019;BME280;49105;46.046;10.760;2023-09-19T07:23:48;95565.13;;;18.27;82.74
63019;BME280;49105;46.046;10.760;2023-09-19T07:26:15;95572.72;;;18.46;82.24
63019;BME280;49105;46.046;10.760;2023-09-19T07:28:41;95570.28;;;18.62;82.17
63019;BME280;49105;46.046;10.760;2023-09-19T07:31:07;95568.50;;;18.74;81.87
63019;BME280;49105;46.046;10.760;2023-09-19T07:33:36;95570.66;;;18.81;81.27
63019;BME280;49105;46.046;10.760;2023-09-19T07:36:02;95564.97;;;18.82;81.37
63019;BME280;49105;46.046;10.760;2023-09-19T07:38:28;95568.28;;;18.79;80.82
63019;BME280;49105;46.046;10.760;2023-09-19T07:41:00;95573.28;;;18.90;81.12
63019;BME280;49105;46.046;10.760;2023-09-19T07:43:26;95579.22;;;18.95;80.81
63019;BME280;49105;46.046;10.760;2023-09-19T07:45:52;95590.78;;;19.08;80.66
63019;BME280;49105;46.046;10.760;2023-09-19T07:48:18;95597.28;;;19.07;79.92
63019;BME280;49105;46.046;10.760;2023-09-19T07:50:44;95602.84;;;19.02;79.30
63019;BME280;49105;46.046;10.760;2023-09-19T07:53:10;95598.25;;;19.02;79.30
63019;BME280;49105;46.046;10.760;2023-09-19T07:55:38;95598.47;;;18.97;78.92
63019;BME280;49105;46.046;10.760;2023-09-19T07:58:04;95604.13;;;18.96;79.15
63019;BME280;49105;46.046;10.760;2023-09-19T08:00:32;95601.38;;;19.04;79.06
63019;BME280;49105;46.046;10.760;2023-09-19T08:03:00;95602.44;;;19.12;79.10
63019;BME280;49105;46.046;10.760;2023-09-19T08:05:27;95597.47;;;19.23;78.78
63019;BME280;49105;46.046;10.760;2023-09-19T08:07:52;95594.91;;;19.26;78.29
63019;BME280;49105;46.046;10.760;2023-09-19T08:10:19;95594.25;;;19.29;78.49
63019;BME280;49105;46.046;10.760;2023-09-19T08:12:46;95584.31;;;19.30;78.14
63019;BME280;49105;46.046;10.760;2023-09-19T08:15:21;95587.22;;;19.37;77.92
63019;BME280;49105;46.046;10.760;2023-09-19T08:17:48;95592.22;;;19.47;77.24
63019;BME280;49105;46.046;10.760;2023-09-19T08:20:14;95591.88;;;19.49;76.33
63019;BME280;49105;46.046;10.760;2023-09-19T08:22:52;95599.28;;;19.52;76.47
63019;BME280;49105;46.046;10.760;2023-09-19T08:25:20;95606.81;;;19.58;75.71
63019;BME280;49105;46.046;10.760;2023-09-19T08:27:48;95602.69;;;19.61;75.42
63019;BME280;49105;46.046;10.760;2023-09-19T08:30:21;95604.38;;;19.66;75.26
63019;BME280;49105;46.046;10.760;2023-09-19T08:32:50;95603.97;;;19.76;75.60
63019;BME280;49105;46.046;10.760;2023-09-19T08:35:16;95604.44;;;19.90;75.46
63019;BME280;49105;46.046;10.760;2023-09-19T08:37:42;95595.50;;;19.98;75.37
63019;BME280;49105;46.046;10.760;2023-09-19T08:40:10;95590.50;;;20.09;75.18
63019;BME280;49105;46.046;10.760;2023-09-19T08:42:51;95583.56;;;20.08;74.49
63019;BME280;49105;46.046;10.760;2023-09-19T08:45:19;95584.47;;;20.12;74.28
63019;BME280;49105;46.046;10.760;2023-09-19T08:51:06;95584.66;;;20.19;73.24
63019;BME280;49105;46.046;10.760;2023-09-19T08:53:50;95581.78;;;20.24;73.55
63019;BME280;49105;46.046;10.760;2023-09-19T08:56:17;95578.41;;;20.27;73.62
63019;BME280;49105;46.046;10.760;2023-09-19T08:58:50;95583.53;;;20.32;73.39
63019;BME280;49105;46.046;10.760;2023-09-19T09:01:20;95582.88;;;20.36;72.73
63019;BME280;49105;46.046;10.760;2023-09-19T09:03:56;95581.97;;;20.31;72.64
63019;BME280;49105;46.046;10.760;2023-09-19T09:06:22;95569.00;;;20.33;72.88
63019;BME280;49105;46.046;10.760;2023-09-19T09:08:52;95574.16;;;20.39;72.57
63019;BME280;49105;46.046;10.760;2023-09-19T09:11:18;95578.50;;;20.43;73.04
63019;BME280;49105;46.046;10.760;2023-09-19T09:13:45;95578.19;;;20.57;73.12
63019;BME280;49105;46.046;10.760;2023-09-19T09:16:11;95572.59;;;20.62;72.46
63019;BME280;49105;46.046;10.760;2023-09-19T09:18:38;95575.50;;;20.69;72.34
63019;BME280;49105;46.046;10.760;2023-09-19T09:21:03;95568.31;;;20.73;71.87
63019;BME280;49105;46.046;10.760;2023-09-19T09:23:30;95565.19;;;20.71;71.02
63019;BME280;49105;46.046;10.760;2023-09-19T09:25:58;95568.31;;;20.73;71.22
63019;BME280;49105;46.046;10.760;2023-09-19T09:28:26;95563.28;;;20.72;71.36
63019;BME280;49105;46.046;10.760;2023-09-19T09:30:54;95565.72;;;20.77;71.63
63019;BME280;49105;46.046;10.760;2023-09-19T09:33:21;95559.34;;;20.81;71.34
63019;BME280;49105;46.046;10.760;2023-09-19T09:35:58;95556.44;;;20.87;70.95
63019;BME280;49105;46.046;10.760;2023-09-19T09:38:27;95554.84;;;20.86;70.70
63019;BME280;49105;46.046;10.760;2023-09-19T09:40:56;95546.56;;;20.91;70.85
63019;BME280;49105;46.046;10.760;2023-09-19T09:43:29;95553.72;;;20.99;70.82
63019;BME280;49105;46.046;10.760;2023-09-19T09:51:44;95545.44;;;21.20;71.05
63019;BME280;49105;46.046;10.760;2023-09-19T09:54:23;95545.63;;;21.27;71.06
63019;BME280;49105;46.046;10.760;2023-09-19T09:56:57;95540.34;;;21.30;71.16
63019;BME280;49105;46.046;10.760;2023-09-19T09:59:50;95539.00;;;21.37;70.91
63019;BME280;49105;46.046;10.760;2023-09-19T10:02:29;95542.69;;;21.44;70.16
63019;BME280;49105;46.046;10.760;2023-09-19T10:04:59;95541.81;;;21.56;70.35
63019;BME280;49105;46.046;10.760;2023-09-19T10:07:49;95535.47;;;21.64;70.01
63019;BME280;49105;46.046;10.760;2023-09-19T10:10:35;95534.22;;;21.74;69.62
63019;BME280;49105;46.046;10.760;2023-09-19T10:13:09;95526.31;;;21.81;69.79
63019;BME280;49105;46.046;10.760;2023-09-19T10:15:37;95518.28;;;21.85;69.78
63019;BME280;49105;46.046;10.760;2023-09-19T10:18:07;95523.00;;;21.88;69.58
63019;BME280;49105;46.046;10.760;2023-09-19T10:20:36;95519.34;;;21.96;69.33
63019;BME280;49105;46.046;10.760;2023-09-19T10:23:08;95515.28;;;22.02;69.14
63019;BME280;49105;46.046;10.760;2023-09-19T10:25:39;95513.09;;;22.08;68.41
63019;BME280;49105;46.046;10.760;2023-09-19T10:28:10;95521.47;;;22.18;67.30
63019;BME280;49105;46.046;10.760;2023-09-19T10:30:38;95514.38;;;22.29;67.49
63019;BME280;49105;46.046;10.760;2023-09-19T10:33:09;95515.00;;;22.39;67.17
63019;BME280;49105;46.046;10.760;2023-09-19T10:35:38;95510.38;;;22.39;66.25
63019;BME280;49105;46.046;10.760;2023-09-19T10:38:06;95502.38;;;22.43;66.63
63019;BME280;49105;46.046;10.760;2023-09-19T10:40:35;95504.44;;;22.49;65.34
63019;BME280;49105;46.046;10.760;2023-09-19T10:43:05;95502.97;;;22.52;65.11
63019;BME280;49105;46.046;10.760;2023-09-19T10:45:36;95501.13;;;22.56;65.62
63019;BME280;49105;46.046;10.760;2023-09-19T10:48:04;95504.31;;;22.62;65.94
63019;BME280;49105;46.046;10.760;2023-09-19T10:50:33;95496.66;;;22.64;65.51
63019;BME280;49105;46.046;10.760;2023-09-19T10:53:02;95497.44;;;22.64;65.36
63019;BME280;49105;46.046;10.760;2023-09-19T10:55:31;95491.28;;;22.64;63.84
63019;BME280;49105;46.046;10.760;2023-09-19T10:57:59;95490.06;;;22.61;63.82
63019;BME280;49105;46.046;10.760;2023-09-19T11:00:25;95485.09;;;22.63;63.58
63019;BME280;49105;46.046;10.760;2023-09-19T11:05:41;95483.81;;;22.76;63.96
63019;BME280;49105;46.046;10.760;2023-09-19T11:08:10;95479.28;;;22.81;63.26
63019;BME280;49105;46.046;10.760;2023-09-19T11:10:48;95476.22;;;22.82;62.56
63019;BME280;49105;46.046;10.760;2023-09-19T11:13:27;95476.28;;;22.86;62.24
63019;BME280;49105;46.046;10.760;2023-09-19T11:26:48;95467.50;;;23.08;59.44
63019;BME280;49105;46.046;10.760;2023-09-19T11:29:30;95467.94;;;23.10;59.04
63019;BME280;49105;46.046;10.760;2023-09-19T11:31:59;95466.78;;;23.11;58.56
63019;BME280;49105;46.046;10.760;2023-09-19T11:34:42;95463.78;;;23.16;58.29
63019;BME280;49105;46.046;10.760;2023-09-19T11:40:09;95464.47;;;23.33;58.20
63019;BME280;49105;46.046;10.760;2023-09-19T11:42:41;95467.06;;;23.25;58.12
63019;BME280;49105;46.046;10.760;2023-09-19T11:45:07;95465.31;;;23.14;58.70
63019;BME280;49105;46.046;10.760;2023-09-19T11:47:55;95462.53;;;23.10;57.85
63019;BME280;49105;46.046;10.760;2023-09-19T11:50:23;95462.06;;;23.05;58.18
63019;BME280;49105;46.046;10.760;2023-09-19T11:52:51;95463.06;;;22.96;57.84
63019;BME280;49105;46.046;10.760;2023-09-19T11:55:17;95477.16;;;22.90;58.13
63019;BME280;49105;46.046;10.760;2023-09-19T11:57:48;95468.63;;;22.88;58.54
63019;BME280;49105;46.046;10.760;2023-09-19T12:00:19;95459.22;;;22.97;58.17
63019;BME280;49105;46.046;10.760;2023-09-19T12:02:49;95459.19;;;23.17;58.78
63019;BME280;49105;46.046;10.760;2023-09-19T12:05:28;95464.91;;;23.35;57.82
63019;BME280;49105;46.046;10.760;2023-09-19T12:07:54;95464.38;;;23.48;56.44
63019;BME280;49105;46.046;10.760;2023-09-19T12:10:20;95457.63;;;23.58;55.24
63019;BME280;49105;46.046;10.760;2023-09-19T12:12:48;95459.34;;;23.66;54.41
63019;BME280;49105;46.046;10.760;2023-09-19T12:15:36;95456.00;;;23.76;53.44
63019;BME280;49105;46.046;10.760;2023-09-19T12:18:04;95449.53;;;23.81;53.47
63019;BME280;49105;46.046;10.760;2023-09-19T12:20:43;95457.16;;;23.75;53.90
63019;BME280;49105;46.046;10.760;2023-09-19T12:23:15;95460.88;;;23.67;53.99
63019;BME280;49105;46.046;10.760;2023-09-19T12:25:44;95464.97;;;23.61;54.33
63019;BME280;49105;46.046;10.760;2023-09-19T12:28:12;95464.16;;;23.57;54.69
63019;BME280;49105;46.046;10.760;2023-09-19T12:30:38;95466.00;;;23.53;54.94
63019;BME280;49105;46.046;10.760;2023-09-19T12:33:19;95469.00;;;23.48;55.47
63019;BME280;49105;46.046;10.760;2023-09-19T12:35:47;95471.16;;;23.39;55.40
63019;BME280;49105;46.046;10.760;2023-09-19T12:38:28;95470.19;;;23.27;56.06
63019;BME280;49105;46.046;10.760;2023-09-19T12:40:57;95472.81;;;23.24;56.42
63019;BME280;49105;46.046;10.760;2023-09-19T12:43:25;95466.22;;;23.21;56.65
63019;BME280;49105;46.046;10.760;2023-09-19T12:45:52;95467.91;;;23.30;56.73
63019;BME280;49105;46.046;10.760;2023-09-19T12:51:01;95474.09;;;23.53;57.31
63019;BME280;49105;46.046;10.760;2023-09-19T12:53:43;95474.00;;;23.46;56.87
63019;BME280;49105;46.046;10.760;2023-09-19T12:56:14;95478.63;;;23.45;57.60
63019;BME280;49105;46.046;10.760;2023-09-19T12:58:57;95477.66;;;23.57;58.35
63019;BME280;49105;46.046;10.760;2023-09-19T13:01:27;95471.69;;;23.67;58.78
63019;BME280;49105;46.046;10.760;2023-09-19T13:04:18;95464.44;;;23.71;58.86
63019;BME280;49105;46.046;10.760;2023-09-19T13:06:48;95461.88;;;23.82;58.66
63019;BME280;49105;46.046;10.760;2023-09-19T13:09:15;95456.66;;;23.93;58.34
63019;BME280;49105;46.046;10.760;2023-09-19T13:11:42;95458.38;;;24.05;58.32
63019;BME280;49105;46.046;10.760;2023-09-19T13:14:21;95456.63;;;24.16;58.16
63019;BME280;49105;46.046;10.760;2023-09-19T13:17:05;95459.41;;;24.23;56.93
63019;BME280;49105;46.046;10.760;2023-09-19T13:19:46;95456.41;;;24.28;56.33
63019;BME280;49105;46.046;10.760;2023-09-19T13:25:04;95444.25;;;24.41;55.80
63019;BME280;49105;46.046;10.760;2023-09-19T13:27:32;95444.25;;;24.41;55.50
63019;BME280;49105;46.046;10.760;2023-09-19T13:30:03;95441.13;;;24.39;54.44
63019;BME280;49105;46.046;10.760;2023-09-19T13:32:32;95436.38;;;24.33;54.22
63019;BME280;49105;46.046;10.760;2023-09-19T13:34:58;95443.97;;;24.23;53.89
63019;BME280;49105;46.046;10.760;2023-09-19T13:37:23;95444.03;;;24.27;55.03
63019;BME280;49105;46.046;10.760;2023-09-19T13:39:49;95434.81;;;24.32;55.41
63019;BME280;49105;46.046;10.760;2023-09-19T13:42:15;95440.34;;;24.39;55.54
63019;BME280;49105;46.046;10.760;2023-09-19T13:44:41;95431.97;;;24.47;55.65